Terminal Aerodrome Forecast
Issued by NWS

Home | Current Version | Previous Version | Text Only | Print | Product List | Glossary On
Versions: 1 2 3 4 5 6 7 8 9 10 11 12 13 14 15 16 17 18 19 20 21 22 23
000
FTUS43 KGRR 301740
TAFLAN
TAF
KLAN 301740Z 3018/3118 04006KT P6SM -RA BKN008
     FM301930 08005KT P6SM VCTS BKN025CB
     FM310300 03003KT 5SM BR OVC025
     FM310900 33002KT 2SM BR OVC015
     FM311000 00000KT 1 1/2SM BR OVC003
     FM311500 04004KT P6SM BKN015=

USA.gov is the U.S. government's official web portal to all federal, state and local government web resources and services.